Skip Navigation LinksHome page > Weather > Current weather Skip Navigation Links

Current Weather

Indira Gandhi Intl Apt, New Delhi, India

For information only: do not use for flight planning or navigation.
Latest weather
Observation time Tuesday, December 1, 2015 12:30 PM IST
Local time Tuesday, December 1, 2015 12:56 PM IST
Flight conditions Low Instrument Meteorological Conditions
Wind direction Northwest (320°)
Wind speed 6 mph
Visibility 0.7 mi.
Present weather smoke
Sky condition
Ceiling unlimited
Cloud layer few clouds 10,000 ft.
Temperature 77°F
Dewpoint 55°F
Altimeter 30.00 in.Hg
Derived measurements
Relative humidity 47%
Heat index 77°F
Density altitude 2040 ft.
METAR VIDP 010700Z 32005KT 1200 R28/1700 R29/1800 FU FEW100 25/13 Q1016 BECMG VIS 1500


Location code

InnerDrive.Weather 4.0.5722.1 Release CLR 4.0.30319.34014
Copyright ©2015 Inner Drive Technology. All rights reserved. Portions Copyright ©1986-2015 David Braverman.

Find weather

Site navigation

Skip Navigation Links

Place info

Page info

PayPal - The safer, easier way to pay online!

Return home.

Copyright ©2015 Inner Drive Technology. Purveyors of fine, hand-crafted computer software. Page printed 2015-12-01T07:26:07 UTC.